Flight Track Log - Related Links

Times and Time Zones

All times are in EDT time to prevent confusion due to time zone crossing. See the SWA471 flight status page for this flight to view local times or setup timezone preferences in your user account.

Time Position Orientation Groundspeed Altitude Reporting Facility
EDT Latitude Longitude Course Direction KTS MPH feet Rate Location/Type
Fri 04:06:40 PM 42.9167 -71.4167 216° Southwest 162 186 1,000  Level KA90
Fri 04:07:53 PM 42.8667 -71.4667 216° Southwest 234 269 3,000 1,263 Climbing KA90
Fri 04:08:53 PM 42.8833 -71.5667 283° West 262 302 3,800 2,200 Climbing KA90
Fri 04:09:53 PM 42.9167 -71.6500 299° West 284 327 7,400 3,364 Climbing KA90
Fri 04:10:40 PM 42.9728 -71.6483 North 269 310 9,800 2,523 Climbing Boston Center
Fri 04:11:40 PM 42.9928 -71.5203 78° East 245 282 11,900 2,100 Climbing Boston Center
Fri 04:12:40 PM 43.0167 -71.3836 77° East 308 354 14,000 2,450 Climbing Boston Center
Fri 04:13:40 PM 43.0400 -71.2383 78° East 372 428 16,800 2,350 Climbing Boston Center
Fri 04:14:40 PM 43.0636 -71.1044 76° East 398 458 18,700 1,850 Climbing Boston Center
Fri 04:15:40 PM 43.0511 -70.9400 96° East 398 458 20,500 1,850 Climbing Boston Center
Fri 04:16:40 PM 42.9422 -70.8944 163° South 320 368 22,400 1,800 Climbing Boston Center
Fri 04:17:40 PM 42.8367 -70.9536 202° Southwest 317 365 24,100 1,650 Climbing Boston Center
Fri 04:18:40 PM 42.7269 -71.0100 201° Southwest 367 422 25,700 1,500 Climbing Boston Center
Fri 04:19:40 PM 42.6172 -71.0606 199° South 397 457 27,100 1,450 Climbing Boston Center
Fri 04:20:40 PM 42.5053 -71.1192 201° Southwest 420 483 28,600 1,550 Climbing Boston Center
Fri 04:21:40 PM 42.4061 -71.1972 210° Southwest 409 471 30,200 1,500 Climbing Boston Center
Fri 04:22:40 PM 42.3658 -71.3358 249° West 382 440 31,600 1,300 Climbing Boston Center
Fri 04:23:40 PM 42.3275 -71.4683 249° West 383 441 32,800 1,150 Climbing Boston Center
Fri 04:24:40 PM 42.2867 -71.5869 245° Southwest 388 447 33,900 600 Climbing Boston Center
Fri 04:25:40 PM 42.2439 -71.7222 247° West 388 447 34,000 50 Climbing Boston Center
Fri 04:26:40 PM 42.2031 -71.8544 247° West 388 447 34,000  Level Boston Center
Fri 04:27:40 PM 42.1619 -71.9892 248° West 388 447 34,000  Level Boston Center
Fri 04:28:40 PM 42.1186 -72.1267 247° West 394 453 34,000  Level Boston Center
Fri 04:29:40 PM 42.0750 -72.2639 247° West 399 459 34,000  Level Boston Center
Fri 04:30:40 PM 42.0314 -72.4039 247° West 399 459 34,000  Level Boston Center
Fri 04:31:40 PM 41.9897 -72.5350 247° West 394 453 34,000  Level Boston Center
Fri 04:32:40 PM 41.9417 -72.6800 246° West 394 453 34,000  Level Boston Center
Fri 04:33:40 PM 41.8683 -72.7914 229° Southwest 394 453 34,000  Level Boston Center
Fri 04:34:40 PM 41.7931 -72.8911 225° Southwest 408 470 34,000  Level Boston Center
Fri 04:35:40 PM 41.7133 -72.9992 225° Southwest 413 475 34,000  Level Boston Center
Fri 04:36:40 PM 41.6356 -73.1094 227° Southwest 413 475 34,000  Level Boston Center
Fri 04:37:40 PM 41.5536 -73.2167 224° Southwest 413 475 34,000  Level Boston Center
Fri 04:38:40 PM 41.4672 -73.3350 226° Southwest 413 475 34,000  Level Boston Center
Fri 04:40:53 PM 41.2908 -73.5739 226° Southwest 417 480 34,000  Level New York Center
Fri 04:41:54 PM 41.2172 -73.6894 230° Southwest 417 480 34,000  Level New York Center
Fri 04:42:54 PM 41.1453 -73.8103 232° Southwest 417 480 34,000  Level New York Center
Fri 04:43:54 PM 41.0756 -73.9308 233° Southwest 417 480 34,000 -407 Level New York Center
Fri 04:44:52 PM 41.0058 -74.0486 232° Southwest 417 480 33,200 -900 Descending New York Center
Fri 04:45:54 PM 40.9378 -74.1633 232° Southwest 417 480 32,200 -600 Descending New York Center
Fri 04:46:52 PM 40.8725 -74.2672 230° Southwest 412 474 32,000 -203 Descending New York Center
Fri 04:47:52 PM 40.8000 -74.3842 231° Southwest 412 474 31,800 -1,289 Descending New York Center
Fri 04:48:53 PM 40.7319 -74.4981 232° Southwest 412 474 29,400 -1,934 Descending New York Center
Fri 04:49:53 PM 40.6639 -74.6094 231° Southwest 406 467 27,900 -1,200 Descending New York Center
Fri 04:50:53 PM 40.5997 -74.7178 232° Southwest 396 456 27,000 -893 Descending New York Center
Fri 04:51:54 PM 40.5233 -74.8253 227° Southwest 401 461 26,100 -958 Descending New York Center
Fri 04:52:52 PM 40.4486 -74.9328 228° Southwest 401 461 25,100 -2,017 Descending New York Center
Fri 04:53:53 PM 40.3742 -75.0372 227° Southwest 401 461 22,100 -2,705 Descending New York Center
Fri 04:54:54 PM 40.3014 -75.1389 227° Southwest 401 461 19,600 -2,033 Descending New York Center
Fri 04:55:54 PM 40.2244 -75.2511 228° Southwest 389 448 18,000 -800 Descending New York Center
Fri 04:56:54 PM 40.1606 -75.3392 227° Southwest 383 441 18,000  Level New York Center
Fri 04:57:52 PM 40.0878 -75.4375 226° Southwest 383 441 18,000  Level New York Center
Fri 04:58:53 PM 40.0172 -75.5386 228° Southwest 383 441 18,000 -50 Level New York Center
Fri 04:59:53 PM 39.9464 -75.6367 227° Southwest 383 441 17,900 -496 Descending New York Center
Fri 05:00:54 PM 39.8861 -75.7353 231° Southwest 378 435 17,000 -645 Descending New York Center
Fri 05:01:54 PM 39.8294 -75.8419 235° Southwest 366 421 16,600 -1,669 Descending New York Center
Fri 05:03:25 PM 39.7333 -76.0167 234° Southwest 344 396 12,800 -1,828 Descending Potomac TRACON
Fri 05:04:25 PM 39.6833 -76.1000 232° Southwest 300 345 12,000 -1,238 Descending Potomac TRACON
Fri 05:05:31 PM 39.6333 -76.1833 232° Southwest 279 321 10,200 -1,587 Descending Potomac TRACON
Fri 05:06:26 PM 39.5833 -76.2333 218° Southwest 275 316 8,800 -1,670 Descending Potomac TRACON
Fri 05:07:26 PM 39.5167 -76.3000 218° Southwest 271 312 7,000 -1,714 Descending Potomac TRACON
Fri 05:08:32 PM 39.4500 -76.3667 218° Southwest 269 310 5,200 -1,000 Descending Potomac TRACON
Fri 05:09:32 PM 39.3833 -76.4000 201° Southwest 270 311 4,900 -1,000 Descending Potomac TRACON
Fri 05:10:32 PM 39.3167 -76.4167 191° South 269 310 3,200 -942 Descending Potomac TRACON
Fri 05:11:33 PM 39.2333 -76.4333 189° South 265 305 3,000 -104 Descending Potomac TRACON
Fri 05:12:27 PM 39.1667 -76.4333 180° South 257 296 3,000  Level Potomac TRACON
Fri 05:13:28 PM 39.1167 -76.4667 207° Southwest 200 230 3,000  Level Potomac TRACON
Fri 05:14:28 PM 39.0667 -76.5000 207° Southwest 193 222 3,000  Level Potomac TRACON

Login

Don't have an account? Register now (free) for customized features, flight alerts, and more!